sensor_id;sensor_type;location;lat;lon;timestamp;pressure;altitude;pressure_sealevel;temperature;humidity
16738;BME280;17906;47.684;10.806;2024-01-27T00:00:21;94677.94;;;2.00;nan
16738;BME280;17906;47.684;10.806;2024-01-27T00:02:48;94682.22;;;1.85;nan
16738;BME280;17906;47.684;10.806;2024-01-27T00:05:15;94681.66;;;1.73;nan
16738;BME280;17906;47.684;10.806;2024-01-27T00:07:43;94684.38;;;1.55;nan
16738;BME280;17906;47.684;10.806;2024-01-27T00:10:10;94689.00;;;1.45;nan
16738;BME280;17906;47.684;10.806;2024-01-27T00:12:36;94687.16;;;1.45;nan
16738;BME280;17906;47.684;10.806;2024-01-27T00:15:03;94683.44;;;1.64;nan
16738;BME280;17906;47.684;10.806;2024-01-27T00:17:30;94691.81;;;1.69;nan
16738;BME280;17906;47.684;10.806;2024-01-27T00:19:57;94681.78;;;1.71;nan
16738;BME280;17906;47.684;10.806;2024-01-27T00:22:23;94680.28;;;1.69;nan
16738;BME280;17906;47.684;10.806;2024-01-27T00:24:51;94683.50;;;1.72;nan
16738;BME280;17906;47.684;10.806;2024-01-27T00:27:18;94685.72;;;1.59;nan
16738;BME280;17906;47.684;10.806;2024-01-27T00:29:45;94690.72;;;1.54;nan
16738;BME280;17906;47.684;10.806;2024-01-27T00:32:11;94695.69;;;1.49;nan
16738;BME280;17906;47.684;10.806;2024-01-27T00:34:38;94693.34;;;1.46;nan
16738;BME280;17906;47.684;10.806;2024-01-27T00:37:04;94697.75;;;1.29;nan
16738;BME280;17906;47.684;10.806;2024-01-27T00:39:31;94696.84;;;1.21;nan
16738;BME280;17906;47.684;10.806;2024-01-27T00:42:00;94699.84;;;1.17;nan
16738;BME280;17906;47.684;10.806;2024-01-27T00:44:26;94698.94;;;1.09;nan
16738;BME280;17906;47.684;10.806;2024-01-27T00:46:53;94696.16;;;1.18;nan
16738;BME280;17906;47.684;10.806;2024-01-27T00:49:20;94703.19;;;1.19;nan
16738;BME280;17906;47.684;10.806;2024-01-27T00:51:46;94716.53;;;1.19;nan
16738;BME280;17906;47.684;10.806;2024-01-27T00:54:13;94704.22;;;1.27;nan
16738;BME280;17906;47.684;10.806;2024-01-27T00:56:40;94704.59;;;1.32;nan
16738;BME280;17906;47.684;10.806;2024-01-27T00:59:08;94705.53;;;1.23;nan
16738;BME280;17906;47.684;10.806;2024-01-27T01:01:35;94710.56;;;1.26;nan
16738;BME280;17906;47.684;10.806;2024-01-27T01:04:01;94713.06;;;1.27;nan
16738;BME280;17906;47.684;10.806;2024-01-27T01:06:28;94715.38;;;1.22;nan
16738;BME280;17906;47.684;10.806;2024-01-27T01:08:55;94704.47;;;1.15;nan
16738;BME280;17906;47.684;10.806;2024-01-27T01:11:21;94727.06;;;1.21;nan
16738;BME280;17906;47.684;10.806;2024-01-27T01:13:48;94730.88;;;1.18;nan
16738;BME280;17906;47.684;10.806;2024-01-27T01:16:16;94733.16;;;1.13;nan
16738;BME280;17906;47.684;10.806;2024-01-27T01:18:42;94744.69;;;1.14;nan
16738;BME280;17906;47.684;10.806;2024-01-27T01:21:09;94734.09;;;1.22;nan
16738;BME280;17906;47.684;10.806;2024-01-27T01:23:36;94743.41;;;1.18;nan
16738;BME280;17906;47.684;10.806;2024-01-27T01:26:02;94725.16;;;1.13;nan
16738;BME280;17906;47.684;10.806;2024-01-27T01:28:29;94735.06;;;1.21;nan
16738;BME280;17906;47.684;10.806;2024-01-27T01:30:57;94745.75;;;1.21;nan
16738;BME280;17906;47.684;10.806;2024-01-27T01:33:25;94736.00;;;1.12;nan
16738;BME280;17906;47.684;10.806;2024-01-27T01:35:52;94741.66;;;1.09;nan
16738;BME280;17906;47.684;10.806;2024-01-27T01:38:18;94742.69;;;1.16;nan
16738;BME280;17906;47.684;10.806;2024-01-27T01:40:45;94744.91;;;1.21;nan
16738;BME280;17906;47.684;10.806;2024-01-27T01:43:12;94740.34;;;1.13;nan
16738;BME280;17906;47.684;10.806;2024-01-27T01:45:38;94729.31;;;1.08;nan
16738;BME280;17906;47.684;10.806;2024-01-27T01:48:05;94730.13;;;1.08;nan
16738;BME280;17906;47.684;10.806;2024-01-27T01:50:35;94739.66;;;1.11;nan
16738;BME280;17906;47.684;10.806;2024-01-27T01:53:02;94733.63;;;0.91;nan
16738;BME280;17906;47.684;10.806;2024-01-27T01:55:29;94740.56;;;0.84;nan
16738;BME280;17906;47.684;10.806;2024-01-27T01:57:56;94737.91;;;0.84;nan
16738;BME280;17906;47.684;10.806;2024-01-27T02:00:23;94742.56;;;0.82;nan
16738;BME280;17906;47.684;10.806;2024-01-27T02:02:49;94741.78;;;0.72;nan
16738;BME280;17906;47.684;10.806;2024-01-27T02:05:16;94746.00;;;0.74;nan
16738;BME280;17906;47.684;10.806;2024-01-27T02:07:44;94740.50;;;0.76;nan
16738;BME280;17906;47.684;10.806;2024-01-27T02:10:13;94726.03;;;0.78;nan
16738;BME280;17906;47.684;10.806;2024-01-27T02:12:41;94719.53;;;0.81;nan
16738;BME280;17906;47.684;10.806;2024-01-27T02:15:09;94721.03;;;0.83;nan
16738;BME280;17906;47.684;10.806;2024-01-27T02:17:37;94720.22;;;0.83;nan
16738;BME280;17906;47.684;10.806;2024-01-27T02:20:04;94722.03;;;0.82;nan
16738;BME280;17906;47.684;10.806;2024-01-27T02:22:31;94736.47;;;0.89;nan
16738;BME280;17906;47.684;10.806;2024-01-27T02:25:00;94728.81;;;0.95;nan
16738;BME280;17906;47.684;10.806;2024-01-27T02:27:26;94750.34;;;0.93;nan
16738;BME280;17906;47.684;10.806;2024-01-27T02:29:53;94751.13;;;0.85;nan
16738;BME280;17906;47.684;10.806;2024-01-27T02:32:20;94738.28;;;0.71;nan
16738;BME280;17906;47.684;10.806;2024-01-27T02:34:46;94747.59;;;0.67;nan
16738;BME280;17906;47.684;10.806;2024-01-27T02:37:13;94748.69;;;0.74;nan
16738;BME280;17906;47.684;10.806;2024-01-27T02:39:40;94746.22;;;0.81;nan
16738;BME280;17906;47.684;10.806;2024-01-27T02:42:08;94749.28;;;0.86;nan
16738;BME280;17906;47.684;10.806;2024-01-27T02:44:35;94744.94;;;0.85;nan
16738;BME280;17906;47.684;10.806;2024-01-27T02:47:01;94749.72;;;0.81;nan
16738;BME280;17906;47.684;10.806;2024-01-27T02:49:28;94753.31;;;0.90;nan
16738;BME280;17906;47.684;10.806;2024-01-27T02:51:55;94749.50;;;0.93;nan
16738;BME280;17906;47.684;10.806;2024-01-27T02:54:21;94750.41;;;0.83;nan
16738;BME280;17906;47.684;10.806;2024-01-27T02:56:48;94751.56;;;0.81;nan
16738;BME280;17906;47.684;10.806;2024-01-27T02:59:16;94758.78;;;0.71;nan
16738;BME280;17906;47.684;10.806;2024-01-27T03:01:43;94754.66;;;0.58;nan
16738;BME280;17906;47.684;10.806;2024-01-27T03:04:09;94755.13;;;0.72;nan
16738;BME280;17906;47.684;10.806;2024-01-27T03:06:36;94758.97;;;0.87;nan
16738;BME280;17906;47.684;10.806;2024-01-27T03:09:03;94759.81;;;0.87;nan
16738;BME280;17906;47.684;10.806;2024-01-27T03:11:29;94763.75;;;0.83;nan
16738;BME280;17906;47.684;10.806;2024-01-27T03:13:56;94765.00;;;0.89;nan
16738;BME280;17906;47.684;10.806;2024-01-27T03:16:24;94772.47;;;0.85;nan
16738;BME280;17906;47.684;10.806;2024-01-27T03:18:51;94775.44;;;0.82;nan
16738;BME280;17906;47.684;10.806;2024-01-27T03:21:17;94774.53;;;0.92;nan
16738;BME280;17906;47.684;10.806;2024-01-27T03:23:44;94768.66;;;0.88;nan
16738;BME280;17906;47.684;10.806;2024-01-27T03:26:10;94764.47;;;0.85;nan
16738;BME280;17906;47.684;10.806;2024-01-27T03:28:37;94771.63;;;0.85;nan
16738;BME280;17906;47.684;10.806;2024-01-27T03:31:04;94777.09;;;0.83;nan
16738;BME280;17906;47.684;10.806;2024-01-27T03:33:32;94780.75;;;0.82;nan
16738;BME280;17906;47.684;10.806;2024-01-27T03:35:58;94775.59;;;0.81;nan
16738;BME280;17906;47.684;10.806;2024-01-27T03:38:25;94791.28;;;0.84;nan
16738;BME280;17906;47.684;10.806;2024-01-27T03:40:52;94781.22;;;0.78;nan
16738;BME280;17906;47.684;10.806;2024-01-27T03:43:19;94787.25;;;0.80;nan
16738;BME280;17906;47.684;10.806;2024-01-27T03:45:46;94794.72;;;0.76;nan
16738;BME280;17906;47.684;10.806;2024-01-27T03:48:12;94794.88;;;0.75;nan
16738;BME280;17906;47.684;10.806;2024-01-27T03:50:40;94802.09;;;0.65;nan
16738;BME280;17906;47.684;10.806;2024-01-27T03:53:07;94809.41;;;0.63;nan
16738;BME280;17906;47.684;10.806;2024-01-27T03:55:34;94812.84;;;0.55;nan
16738;BME280;17906;47.684;10.806;2024-01-27T03:58:00;94816.03;;;0.58;nan
16738;BME280;17906;47.684;10.806;2024-01-27T04:00:27;94812.97;;;0.53;nan
16738;BME280;17906;47.684;10.806;2024-01-27T04:02:57;94804.22;;;0.34;nan
16738;BME280;17906;47.684;10.806;2024-01-27T04:05:24;94805.06;;;0.34;nan
16738;BME280;17906;47.684;10.806;2024-01-27T04:07:52;94810.00;;;0.29;nan
16738;BME280;17906;47.684;10.806;2024-01-27T04:10:19;94806.94;;;0.24;nan
16738;BME280;17906;47.684;10.806;2024-01-27T04:12:45;94819.47;;;0.14;nan
16738;BME280;17906;47.684;10.806;2024-01-27T04:15:12;94809.34;;;0.17;nan
16738;BME280;17906;47.684;10.806;2024-01-27T04:17:39;94806.31;;;0.02;nan
16738;BME280;17906;47.684;10.806;2024-01-27T04:20:08;94811.34;;;0.06;nan
16738;BME280;17906;47.684;10.806;2024-01-27T04:22:35;94813.44;;;0.12;nan
16738;BME280;17906;47.684;10.806;2024-01-27T04:25:04;94810.44;;;0.24;nan
16738;BME280;17906;47.684;10.806;2024-01-27T04:27:36;94816.94;;;0.12;nan
16738;BME280;17906;47.684;10.806;2024-01-27T04:30:04;94815.16;;;0.03;nan
16738;BME280;17906;47.684;10.806;2024-01-27T04:32:31;94816.16;;;0.02;nan
16738;BME280;17906;47.684;10.806;2024-01-27T04:34:58;94812.16;;;0.16;nan
16738;BME280;17906;47.684;10.806;2024-01-27T04:37:24;94825.59;;;0.24;nan
16738;BME280;17906;47.684;10.806;2024-01-27T04:39:51;94823.78;;;0.24;nan
16738;BME280;17906;47.684;10.806;2024-01-27T04:42:19;94826.44;;;0.24;nan
16738;BME280;17906;47.684;10.806;2024-01-27T04:44:46;94828.25;;;0.34;nan
16738;BME280;17906;47.684;10.806;2024-01-27T04:47:12;94836.81;;;0.27;nan
16738;BME280;17906;47.684;10.806;2024-01-27T04:49:39;94825.75;;;0.22;nan
16738;BME280;17906;47.684;10.806;2024-01-27T04:52:06;94834.28;;;0.26;nan
16738;BME280;17906;47.684;10.806;2024-01-27T04:54:33;94831.75;;;0.34;nan
16738;BME280;17906;47.684;10.806;2024-01-27T04:56:59;94835.59;;;0.22;nan
16738;BME280;17906;47.684;10.806;2024-01-27T04:59:27;94837.94;;;0.25;nan
16738;BME280;17906;47.684;10.806;2024-01-27T05:01:54;94833.31;;;0.27;nan
16738;BME280;17906;47.684;10.806;2024-01-27T05:04:20;94830.94;;;0.24;nan
16738;BME280;17906;47.684;10.806;2024-01-27T05:06:51;94830.78;;;0.25;nan
16738;BME280;17906;47.684;10.806;2024-01-27T05:09:18;94825.19;;;0.19;nan
16738;BME280;17906;47.684;10.806;2024-01-27T05:11:45;94835.50;;;0.04;nan
16738;BME280;17906;47.684;10.806;2024-01-27T05:14:13;94827.09;;;-0.01;nan
16738;BME280;17906;47.684;10.806;2024-01-27T05:16:41;94841.97;;;0.01;nan
16738;BME280;17906;47.684;10.806;2024-01-27T05:19:08;94841.38;;;0.08;nan
16738;BME280;17906;47.684;10.806;2024-01-27T05:21:34;94832.34;;;0.18;nan
16738;BME280;17906;47.684;10.806;2024-01-27T05:24:01;94837.56;;;0.20;nan
16738;BME280;17906;47.684;10.806;2024-01-27T05:26:28;94842.59;;;0.23;nan
16738;BME280;17906;47.684;10.806;2024-01-27T05:28:55;94844.44;;;0.22;nan
16738;BME280;17906;47.684;10.806;2024-01-27T05:31:21;94847.25;;;0.21;nan
16738;BME280;17906;47.684;10.806;2024-01-27T05:33:49;94844.13;;;0.25;nan
16738;BME280;17906;47.684;10.806;2024-01-27T05:36:16;94843.28;;;0.25;nan
16738;BME280;17906;47.684;10.806;2024-01-27T05:38:43;94854.06;;;0.33;nan
16738;BME280;17906;47.684;10.806;2024-01-27T05:41:09;94861.91;;;0.35;nan
16738;BME280;17906;47.684;10.806;2024-01-27T05:43:36;94868.47;;;0.03;nan
16738;BME280;17906;47.684;10.806;2024-01-27T05:46:03;94866.66;;;-0.06;nan
16738;BME280;17906;47.684;10.806;2024-01-27T05:48:30;94864.81;;;0.04;nan
16738;BME280;17906;47.684;10.806;2024-01-27T05:51:00;94865.38;;;0.08;nan
16738;BME280;17906;47.684;10.806;2024-01-27T05:53:27;94867.78;;;0.01;nan
16738;BME280;17906;47.684;10.806;2024-01-27T05:55:55;94864.28;;;0.00;nan
16738;BME280;17906;47.684;10.806;2024-01-27T05:58:22;94871.81;;;0.15;nan
16738;BME280;17906;47.684;10.806;2024-01-27T06:00:48;94870.16;;;0.04;nan
16738;BME280;17906;47.684;10.806;2024-01-27T06:03:15;94868.75;;;0.10;nan
16738;BME280;17906;47.684;10.806;2024-01-27T06:05:42;94871.81;;;0.15;nan
16738;BME280;17906;47.684;10.806;2024-01-27T06:08:10;94866.31;;;0.16;nan
16738;BME280;17906;47.684;10.806;2024-01-27T06:10:37;94863.53;;;0.08;nan
16738;BME280;17906;47.684;10.806;2024-01-27T06:13:04;94864.44;;;-0.01;nan
16738;BME280;17906;47.684;10.806;2024-01-27T06:15:31;94857.69;;;-0.15;nan
16738;BME280;17906;47.684;10.806;2024-01-27T06:17:58;94849.28;;;-0.10;nan
16738;BME280;17906;47.684;10.806;2024-01-27T06:20:24;94850.53;;;-0.14;nan
16738;BME280;17906;47.684;10.806;2024-01-27T06:22:51;94866.41;;;-0.13;nan
16738;BME280;17906;47.684;10.806;2024-01-27T06:25:20;94865.59;;;-0.23;nan
16738;BME280;17906;47.684;10.806;2024-01-27T06:27:46;94868.25;;;-0.23;nan
16738;BME280;17906;47.684;10.806;2024-01-27T06:30:14;94867.41;;;-0.23;nan
16738;BME280;17906;47.684;10.806;2024-01-27T06:32:41;94864.75;;;-0.33;nan
16738;BME280;17906;47.684;10.806;2024-01-27T06:35:07;94868.13;;;-0.31;nan
16738;BME280;17906;47.684;10.806;2024-01-27T06:37:34;94867.13;;;-0.30;nan
16738;BME280;17906;47.684;10.806;2024-01-27T06:40:01;94875.13;;;-0.30;nan
16738;BME280;17906;47.684;10.806;2024-01-27T06:42:30;94873.75;;;-0.34;nan
16738;BME280;17906;47.684;10.806;2024-01-27T06:44:56;94873.31;;;-0.49;nan
16738;BME280;17906;47.684;10.806;2024-01-27T06:47:23;94878.22;;;-0.64;nan
16738;BME280;17906;47.684;10.806;2024-01-27T06:49:50;94876.41;;;-0.53;nan
16738;BME280;17906;47.684;10.806;2024-01-27T06:52:16;94877.41;;;-0.54;nan
16738;BME280;17906;47.684;10.806;2024-01-27T06:54:43;94874.28;;;-0.60;nan
16738;BME280;17906;47.684;10.806;2024-01-27T06:57:17;94876.84;;;-0.77;nan
16738;BME280;17906;47.684;10.806;2024-01-27T06:59:47;94880.03;;;-0.83;nan
16738;BME280;17906;47.684;10.806;2024-01-27T07:02:17;94874.00;;;-0.95;nan
16738;BME280;17906;47.684;10.806;2024-01-27T07:04:44;94872.84;;;-1.02;nan
16738;BME280;17906;47.684;10.806;2024-01-27T07:07:10;94878.63;;;-0.97;nan
16738;BME280;17906;47.684;10.806;2024-01-27T07:09:37;94874.84;;;-0.95;nan
16738;BME280;17906;47.684;10.806;2024-01-27T07:12:04;94882.25;;;-1.08;nan
16738;BME280;17906;47.684;10.806;2024-01-27T07:14:31;94881.53;;;-1.00;nan
16738;BME280;17906;47.684;10.806;2024-01-27T07:16:59;94879.59;;;-0.98;nan
16738;BME280;17906;47.684;10.806;2024-01-27T07:19:26;94874.16;;;-0.97;nan
16738;BME280;17906;47.684;10.806;2024-01-27T07:21:53;94882.00;;;-0.95;nan
16738;BME280;17906;47.684;10.806;2024-01-27T07:24:20;73211.75;;;-0.87;nan
16738;BME280;17906;47.684;10.806;2024-01-27T07:26:46;94889.28;;;-0.88;nan
16738;BME280;17906;47.684;10.806;2024-01-27T07:29:13;94880.88;;;-0.93;nan
16738;BME280;17906;47.684;10.806;2024-01-27T07:31:40;94889.31;;;-0.78;nan
16738;BME280;17906;47.684;10.806;2024-01-27T07:34:08;94893.38;;;-0.64;nan
16738;BME280;17906;47.684;10.806;2024-01-27T07:36:35;94900.09;;;-0.50;nan
16738;BME280;17906;47.684;10.806;2024-01-27T07:39:01;94902.91;;;-0.42;nan
16738;BME280;17906;47.684;10.806;2024-01-27T07:41:30;94903.31;;;-0.37;nan
16738;BME280;17906;47.684;10.806;2024-01-27T07:43:56;94915.94;;;-0.30;nan
16738;BME280;17906;47.684;10.806;2024-01-27T07:46:23;94906.34;;;-0.03;nan
16738;BME280;17906;47.684;10.806;2024-01-27T07:48:49;94917.91;;;-0.12;nan
16738;BME280;17906;47.684;10.806;2024-01-27T07:51:17;94912.97;;;-0.17;nan
16738;BME280;17906;47.684;10.806;2024-01-27T07:53:44;94918.44;;;-0.28;nan
16738;BME280;17906;47.684;10.806;2024-01-27T07:56:10;94921.94;;;-0.18;nan
16738;BME280;17906;47.684;10.806;2024-01-27T07:58:37;94924.31;;;-0.24;nan
16738;BME280;17906;47.684;10.806;2024-01-27T08:01:04;94917.63;;;-0.29;nan
16738;BME280;17906;47.684;10.806;2024-01-27T08:03:31;94915.25;;;-0.22;nan
16738;BME280;17906;47.684;10.806;2024-01-27T08:05:57;94918.88;;;-0.23;nan
16738;BME280;17906;47.684;10.806;2024-01-27T08:08:25;94907.22;;;-0.12;nan
16738;BME280;17906;47.684;10.806;2024-01-27T08:10:52;94913.53;;;-0.13;nan
16738;BME280;17906;47.684;10.806;2024-01-27T08:13:18;94905.81;;;-0.07;nan
16738;BME280;17906;47.684;10.806;2024-01-27T08:15:45;94915.34;;;-0.04;nan
16738;BME280;17906;47.684;10.806;2024-01-27T08:18:12;94911.00;;;-0.05;nan
16738;BME280;17906;47.684;10.806;2024-01-27T08:20:38;94923.91;;;-0.10;nan
16738;BME280;17906;47.684;10.806;2024-01-27T08:23:05;94915.63;;;-0.07;nan
16738;BME280;17906;47.684;10.806;2024-01-27T08:25:33;94918.00;;;-0.04;nan
16738;BME280;17906;47.684;10.806;2024-01-27T08:28:00;94917.97;;;0.15;nan
16738;BME280;17906;47.684;10.806;2024-01-27T08:30:27;94927.47;;;0.27;nan
16738;BME280;17906;47.684;10.806;2024-01-27T08:32:53;94930.50;;;0.52;nan
16738;BME280;17906;47.684;10.806;2024-01-27T08:35:20;94934.13;;;0.60;nan
16738;BME280;17906;47.684;10.806;2024-01-27T08:37:47;94927.38;;;0.66;nan
16738;BME280;17906;47.684;10.806;2024-01-27T08:40:14;94926.72;;;0.54;nan
16738;BME280;17906;47.684;10.806;2024-01-27T08:42:43;94920.00;;;0.41;nan
16738;BME280;17906;47.684;10.806;2024-01-27T08:45:10;94914.75;;;0.58;nan
16738;BME280;17906;47.684;10.806;2024-01-27T08:47:37;94916.28;;;0.61;nan
16738;BME280;17906;47.684;10.806;2024-01-27T08:50:04;94912.78;;;1.15;nan
16738;BME280;17906;47.684;10.806;2024-01-27T08:52:31;94917.47;;;1.49;nan
16738;BME280;17906;47.684;10.806;2024-01-27T08:54:58;94918.88;;;1.89;nan
16738;BME280;17906;47.684;10.806;2024-01-27T08:57:24;94909.97;;;2.50;nan
16738;BME280;17906;47.684;10.806;2024-01-27T08:59:52;94904.69;;;3.00;nan
16738;BME280;17906;47.684;10.806;2024-01-27T09:02:19;94914.91;;;3.47;nan
16738;BME280;17906;47.684;10.806;2024-01-27T09:04:46;94913.00;;;3.90;nan
16738;BME280;17906;47.684;10.806;2024-01-27T09:07:12;94913.00;;;3.90;nan
16738;BME280;17906;47.684;10.806;2024-01-27T09:09:39;94910.34;;;4.94;nan
16738;BME280;17906;47.684;10.806;2024-01-27T09:12:06;94903.59;;;5.45;nan
16738;BME280;17906;47.684;10.806;2024-01-27T09:14:33;94897.34;;;6.30;nan
16738;BME280;17906;47.684;10.806;2024-01-27T09:17:01;94899.44;;;6.57;nan
16738;BME280;17906;47.684;10.806;2024-01-27T09:19:28;59087.34;;;-146.04;100.00
16738;BME280;17906;47.684;10.806;2024-01-27T09:21:54;59087.34;;;-146.04;100.00
16738;BME280;17906;47.684;10.806;2024-01-27T09:24:21;59087.34;;;-146.04;100.00
16738;BME280;17906;47.684;10.806;2024-01-27T09:26:48;59087.34;;;-146.04;100.00
16738;BME280;17906;47.684;10.806;2024-01-27T09:29:14;59087.34;;;-146.04;100.00
16738;BME280;17906;47.684;10.806;2024-01-27T09:31:41;59087.34;;;-146.04;100.00
16738;BME280;17906;47.684;10.806;2024-01-27T09:34:09;59087.34;;;-146.04;100.00
16738;BME280;17906;47.684;10.806;2024-01-27T09:36:35;59087.34;;;-146.04;100.00
16738;BME280;17906;47.684;10.806;2024-01-27T09:39:02;59087.34;;;-146.04;100.00
16738;BME280;17906;47.684;10.806;2024-01-27T09:41:30;59087.34;;;-146.04;100.00
16738;BME280;17906;47.684;10.806;2024-01-27T09:43:59;59087.34;;;-146.04;100.00
16738;BME280;17906;47.684;10.806;2024-01-27T09:46:28;59087.34;;;-146.04;100.00
16738;BME280;17906;47.684;10.806;2024-01-27T09:48:55;59087.34;;;-146.04;100.00
16738;BME280;17906;47.684;10.806;2024-01-27T09:51:24;59087.34;;;-146.04;100.00
16738;BME280;17906;47.684;10.806;2024-01-27T09:53:51;59087.34;;;-146.04;100.00
16738;BME280;17906;47.684;10.806;2024-01-27T09:56:18;59087.34;;;-146.04;100.00
16738;BME280;17906;47.684;10.806;2024-01-27T09:58:46;59087.34;;;-146.04;100.00
16738;BME280;17906;47.684;10.806;2024-01-27T10:01:16;59087.34;;;-146.04;100.00
16738;BME280;17906;47.684;10.806;2024-01-27T10:03:43;59087.34;;;-146.04;100.00
16738;BME280;17906;47.684;10.806;2024-01-27T10:06:10;59087.34;;;-146.04;100.00
16738;BME280;17906;47.684;10.806;2024-01-27T10:08:38;59087.34;;;-146.04;100.00
16738;BME280;17906;47.684;10.806;2024-01-27T10:11:06;59087.34;;;-146.04;100.00
16738;BME280;17906;47.684;10.806;2024-01-27T10:13:33;59087.34;;;-146.04;100.00
16738;BME280;17906;47.684;10.806;2024-01-27T10:16:00;59087.34;;;-146.04;100.00
16738;BME280;17906;47.684;10.806;2024-01-27T10:18:28;59087.34;;;-146.04;100.00
16738;BME280;17906;47.684;10.806;2024-01-27T10:20:55;59087.34;;;-146.04;100.00
16738;BME280;17906;47.684;10.806;2024-01-27T10:23:21;59087.34;;;-146.04;100.00
16738;BME280;17906;47.684;10.806;2024-01-27T10:25:50;59087.34;;;-146.04;100.00
16738;BME280;17906;47.684;10.806;2024-01-27T10:28:17;59087.34;;;-146.04;100.00
16738;BME280;17906;47.684;10.806;2024-01-27T10:30:44;59087.34;;;-146.04;100.00
16738;BME280;17906;47.684;10.806;2024-01-27T10:33:12;59087.34;;;-146.04;100.00
16738;BME280;17906;47.684;10.806;2024-01-27T10:35:39;59087.34;;;-146.04;100.00
16738;BME280;17906;47.684;10.806;2024-01-27T10:38:06;59087.34;;;-146.04;100.00
16738;BME280;17906;47.684;10.806;2024-01-27T10:40:33;59087.34;;;-146.04;100.00
16738;BME280;17906;47.684;10.806;2024-01-27T10:43:15;59087.34;;;-146.04;100.00
16738;BME280;17906;47.684;10.806;2024-01-27T10:45:43;59087.34;;;-146.04;100.00
16738;BME280;17906;47.684;10.806;2024-01-27T10:48:10;59087.34;;;-146.04;100.00
16738;BME280;17906;47.684;10.806;2024-01-27T10:50:38;59087.34;;;-146.04;100.00
16738;BME280;17906;47.684;10.806;2024-01-27T10:53:09;59087.34;;;-146.04;100.00
16738;BME280;17906;47.684;10.806;2024-01-27T10:55:36;59087.34;;;-146.04;100.00
16738;BME280;17906;47.684;10.806;2024-01-27T10:58:06;59087.34;;;-146.04;100.00
16738;BME280;17906;47.684;10.806;2024-01-27T11:00:33;59087.34;;;-146.04;100.00
16738;BME280;17906;47.684;10.806;2024-01-27T11:03:02;59087.34;;;-146.04;100.00
16738;BME280;17906;47.684;10.806;2024-01-27T11:05:30;59087.34;;;-146.04;100.00
16738;BME280;17906;47.684;10.806;2024-01-27T11:07:58;59087.34;;;-146.04;100.00
16738;BME280;17906;47.684;10.806;2024-01-27T11:10:25;59087.34;;;-146.04;100.00
16738;BME280;17906;47.684;10.806;2024-01-27T11:12:56;59087.34;;;-146.04;100.00
16738;BME280;17906;47.684;10.806;2024-01-27T11:15:24;59087.34;;;-146.04;100.00
16738;BME280;17906;47.684;10.806;2024-01-27T11:17:51;59087.34;;;-146.04;100.00
16738;BME280;17906;47.684;10.806;2024-01-27T11:20:17;59087.34;;;-146.04;100.00
16738;BME280;17906;47.684;10.806;2024-01-27T11:22:44;59087.34;;;-146.04;100.00
16738;BME280;17906;47.684;10.806;2024-01-27T11:25:16;59087.34;;;-146.04;100.00
16738;BME280;17906;47.684;10.806;2024-01-27T11:27:44;59087.34;;;-146.04;100.00
16738;BME280;17906;47.684;10.806;2024-01-27T11:30:28;59087.34;;;-146.04;100.00
16738;BME280;17906;47.684;10.806;2024-01-27T11:32:55;59087.34;;;-146.04;100.00
16738;BME280;17906;47.684;10.806;2024-01-27T11:35:22;59087.34;;;-146.04;100.00
16738;BME280;17906;47.684;10.806;2024-01-27T11:37:49;59087.34;;;-146.04;100.00
16738;BME280;17906;47.684;10.806;2024-01-27T11:40:16;59087.34;;;-146.04;100.00
16738;BME280;17906;47.684;10.806;2024-01-27T11:42:42;59087.34;;;-146.04;100.00
16738;BME280;17906;47.684;10.806;2024-01-27T11:45:09;59087.34;;;-146.04;100.00
16738;BME280;17906;47.684;10.806;2024-01-27T11:47:37;59087.34;;;-146.04;100.00
16738;BME280;17906;47.684;10.806;2024-01-27T11:50:04;59087.34;;;-146.04;100.00
16738;BME280;17906;47.684;10.806;2024-01-27T11:52:31;59087.34;;;-146.04;100.00
16738;BME280;17906;47.684;10.806;2024-01-27T11:54:58;59087.34;;;-146.04;100.00
16738;BME280;17906;47.684;10.806;2024-01-27T11:57:25;59087.34;;;-146.04;100.00
16738;BME280;17906;47.684;10.806;2024-01-27T11:59:53;59087.34;;;-146.04;100.00
16738;BME280;17906;47.684;10.806;2024-01-27T12:02:20;59087.34;;;-146.04;100.00
16738;BME280;17906;47.684;10.806;2024-01-27T12:04:49;59087.34;;;-146.04;100.00
16738;BME280;17906;47.684;10.806;2024-01-27T12:07:16;59087.34;;;-146.04;100.00
16738;BME280;17906;47.684;10.806;2024-01-27T12:09:44;59087.34;;;-146.04;100.00
16738;BME280;17906;47.684;10.806;2024-01-27T12:12:12;59087.34;;;-146.04;100.00
16738;BME280;17906;47.684;10.806;2024-01-27T12:14:39;59087.34;;;-146.04;100.00
16738;BME280;17906;47.684;10.806;2024-01-27T12:17:08;59087.34;;;-146.04;100.00
16738;BME280;17906;47.684;10.806;2024-01-27T12:19:35;59087.34;;;-146.04;100.00
16738;BME280;17906;47.684;10.806;2024-01-27T12:22:03;59087.34;;;-146.04;100.00
16738;BME280;17906;47.684;10.806;2024-01-27T12:24:30;59087.34;;;-146.04;100.00
16738;BME280;17906;47.684;10.806;2024-01-27T12:26:59;59087.34;;;-146.04;100.00
16738;BME280;17906;47.684;10.806;2024-01-27T12:29:25;59087.34;;;-146.04;100.00
16738;BME280;17906;47.684;10.806;2024-01-27T12:31:53;59087.34;;;-146.04;100.00
16738;BME280;17906;47.684;10.806;2024-01-27T12:34:20;59087.34;;;-146.04;100.00
16738;BME280;17906;47.684;10.806;2024-01-27T12:36:47;59087.34;;;-146.04;100.00
16738;BME280;17906;47.684;10.806;2024-01-27T12:39:15;59087.34;;;-146.04;100.00
16738;BME280;17906;47.684;10.806;2024-01-27T12:41:42;59087.34;;;-146.04;100.00
16738;BME280;17906;47.684;10.806;2024-01-27T12:44:09;59087.34;;;-146.04;100.00
16738;BME280;17906;47.684;10.806;2024-01-27T12:46:36;59087.34;;;-146.04;100.00
16738;BME280;17906;47.684;10.806;2024-01-27T12:49:03;59087.34;;;-146.04;100.00
16738;BME280;17906;47.684;10.806;2024-01-27T12:51:30;59087.34;;;-146.04;100.00
16738;BME280;17906;47.684;10.806;2024-01-27T12:53:57;59087.34;;;-146.04;100.00
16738;BME280;17906;47.684;10.806;2024-01-27T12:56:25;59087.34;;;-146.04;100.00
16738;BME280;17906;47.684;10.806;2024-01-27T12:58:51;59087.34;;;-146.04;100.00
16738;BME280;17906;47.684;10.806;2024-01-27T13:01:18;59087.34;;;-146.04;100.00